createdAt,value
2023-05-15T00:01:04.901Z,16.40
2023-05-15T00:03:38.073Z,16.10
2023-05-15T00:06:09.168Z,15.80
2023-05-15T00:08:39.329Z,15.50
2023-05-15T00:11:09.699Z,15.10
2023-05-15T00:13:40.142Z,14.70
2023-05-15T00:16:11.302Z,14.40
2023-05-15T00:18:43.507Z,14.10
2023-05-15T00:21:13.969Z,13.80
2023-05-15T00:23:44.167Z,13.60
2023-05-15T00:26:16.439Z,13.50
2023-05-15T00:28:46.756Z,13.40
2023-05-15T00:31:17.506Z,13.20
2023-05-15T00:33:49.722Z,13.10
2023-05-15T00:36:22.303Z,13.00
2023-05-15T00:38:52.430Z,12.90
2023-05-15T00:41:25.167Z,12.90
2023-05-15T00:43:58.097Z,12.70
2023-05-15T00:46:29.827Z,12.60
2023-05-15T00:49:01.989Z,12.50
2023-05-15T00:51:32.427Z,12.50
2023-05-15T00:54:02.868Z,12.30
2023-05-15T00:56:34.432Z,12.30
2023-05-15T00:59:07.586Z,12.20
2023-05-15T01:01:40.150Z,12.00
2023-05-15T01:04:13.916Z,11.80
2023-05-15T01:06:44.860Z,11.50
2023-05-15T01:09:16.695Z,11.30
2023-05-15T01:11:49.273Z,10.90
2023-05-15T01:14:20.222Z,10.60
2023-05-15T01:16:50.551Z,10.40
2023-05-15T01:19:22.589Z,10.20
2023-05-15T01:22:29.619Z,10.00
2023-05-15T01:25:36.707Z,9.80
2023-05-15T01:28:11.889Z,9.70
2023-05-15T01:30:45.421Z,9.60
2023-05-15T01:33:23.512Z,9.50
2023-05-15T01:36:02.264Z,9.30
2023-05-15T01:38:37.782Z,9.20
2023-05-15T01:41:18.280Z,9.10
2023-05-15T01:43:56.520Z,9.00
2023-05-15T01:46:31.158Z,8.90
2023-05-15T01:49:05.658Z,8.70
2023-05-15T01:51:37.362Z,8.80
2023-05-15T01:54:09.425Z,8.80
2023-05-15T01:56:42.135Z,8.80
2023-05-15T01:59:16.612Z,8.80
2023-05-15T02:01:48.375Z,8.70
2023-05-15T02:04:19.565Z,8.70
2023-05-15T02:06:51.995Z,8.70
2023-05-15T02:09:23.932Z,8.60
2023-05-15T02:11:54.853Z,8.60
2023-05-15T02:14:29.032Z,8.40
2023-05-15T02:16:59.240Z,8.20
2023-05-15T02:19:30.138Z,8.10
2023-05-15T02:22:00.239Z,7.90
2023-05-15T02:24:30.939Z,7.80
2023-05-15T02:27:07.306Z,7.70
2023-05-15T02:29:45.277Z,7.60
2023-05-15T02:32:21.201Z,7.50
2023-05-15T02:35:04.823Z,7.50
2023-05-15T02:37:57.465Z,7.40
2023-05-15T02:40:28.789Z,7.30
2023-05-15T02:43:00.948Z,7.20
2023-05-15T02:45:34.806Z,7.30
2023-05-15T02:48:06.587Z,7.40
2023-05-15T02:50:37.200Z,7.40
2023-05-15T02:53:08.146Z,7.40
2023-05-15T02:55:38.926Z,7.50
2023-05-15T02:58:09.185Z,7.70
2023-05-15T03:00:41.161Z,7.80
2023-05-15T03:03:11.360Z,8.00
2023-05-15T03:05:41.972Z,8.10
2023-05-15T03:08:12.128Z,8.10
2023-05-15T03:10:42.356Z,8.20
2023-05-15T03:13:12.819Z,8.20
2023-05-15T03:15:47.637Z,8.20
2023-05-15T03:18:19.625Z,8.40
2023-05-15T03:20:51.124Z,8.50
2023-05-15T03:23:21.439Z,8.50
2023-05-15T03:25:52.227Z,8.50
2023-05-15T03:28:22.538Z,8.60
2023-05-15T03:30:54.729Z,8.60
2023-05-15T03:33:24.895Z,8.60
2023-05-15T03:35:55.205Z,8.60
2023-05-15T03:38:25.548Z,8.60
2023-05-15T03:40:56.678Z,8.50
2023-05-15T03:43:27.366Z,8.40
2023-05-15T03:45:59.195Z,8.20
2023-05-15T03:48:30.169Z,8.20
2023-05-15T03:51:00.720Z,8.00
2023-05-15T03:53:31.135Z,7.90
2023-05-15T03:56:01.385Z,7.80
2023-05-15T03:58:32.649Z,7.70
2023-05-15T04:01:04.576Z,7.60
2023-05-15T04:03:35.055Z,7.50
2023-05-15T04:06:05.594Z,7.60
2023-05-15T04:08:35.732Z,7.80
2023-05-15T04:11:06.625Z,7.90
2023-05-15T04:13:37.040Z,7.90
2023-05-15T04:16:10.987Z,7.80
2023-05-15T04:18:41.430Z,7.80
2023-05-15T04:21:11.636Z,7.80
2023-05-15T04:23:42.331Z,7.80
2023-05-15T04:26:13.195Z,7.80
2023-05-15T04:28:52.390Z,7.60
2023-05-15T04:31:29.459Z,7.50
2023-05-15T04:34:00.069Z,7.40
2023-05-15T04:36:30.340Z,7.30
2023-05-15T04:39:00.539Z,7.30
2023-05-15T04:41:30.988Z,7.50
2023-05-15T04:44:01.306Z,7.60
2023-05-15T04:46:35.418Z,7.70
2023-05-15T04:49:05.788Z,7.90
2023-05-15T04:51:53.782Z,8.10
2023-05-15T04:54:23.960Z,8.20
2023-05-15T04:56:54.335Z,8.10
2023-05-15T04:59:25.487Z,8.00
2023-05-15T05:01:55.799Z,7.90
2023-05-15T05:04:26.464Z,7.70
2023-05-15T05:06:59.334Z,7.50
2023-05-15T05:09:29.663Z,7.40
2023-05-15T05:12:02.034Z,7.10
2023-05-15T05:14:32.226Z,7.00
2023-05-15T05:17:02.808Z,7.00
2023-05-15T05:19:33.255Z,6.90
2023-05-15T05:22:06.141Z,6.90
2023-05-15T05:24:38.126Z,6.90
2023-05-15T05:27:08.936Z,6.90
2023-05-15T05:29:40.558Z,6.80
2023-05-15T05:32:11.221Z,6.80
2023-05-15T05:34:41.354Z,6.70
2023-05-15T05:37:13.161Z,6.60
2023-05-15T05:39:43.484Z,6.60
2023-05-15T05:42:13.722Z,6.50
2023-05-15T05:44:43.909Z,6.60
2023-05-15T05:47:14.316Z,6.70
2023-05-15T05:49:47.988Z,6.90
2023-05-15T05:52:19.859Z,7.00
2023-05-15T05:54:50.032Z,6.90
2023-05-15T05:57:20.342Z,6.70
2023-05-15T06:02:30.140Z,6.40
2023-05-15T06:05:00.430Z,6.50
2023-05-15T06:07:31.434Z,6.80
2023-05-15T06:10:01.851Z,6.80
2023-05-15T06:12:32.051Z,6.90
2023-05-15T06:15:02.400Z,6.80
2023-05-15T06:17:34.518Z,6.70
2023-05-15T06:20:06.536Z,6.50
2023-05-15T06:22:37.042Z,6.20
2023-05-15T06:25:08.576Z,5.90
2023-05-15T06:27:38.774Z,5.70
2023-05-15T06:30:10.258Z,5.50
2023-05-15T06:32:42.322Z,5.40
2023-05-15T06:35:13.206Z,5.40
2023-05-15T06:37:43.492Z,5.20
2023-05-15T06:40:14.439Z,5.10
2023-05-15T06:42:44.725Z,4.90
2023-05-15T06:45:15.026Z,5.10
2023-05-15T06:47:46.958Z,5.30
2023-05-15T06:50:17.442Z,5.60
2023-05-15T06:52:47.913Z,5.80
2023-05-15T06:55:18.209Z,5.80
2023-05-15T06:57:48.603Z,5.90
2023-05-15T07:00:19.744Z,6.00
2023-05-15T07:02:51.632Z,6.00
2023-05-15T07:05:22.486Z,6.00
2023-05-15T07:07:52.749Z,5.80
2023-05-15T07:10:23.287Z,5.70
2023-05-15T07:12:53.692Z,5.60
2023-05-15T07:15:24.127Z,5.70
2023-05-15T07:17:56.218Z,5.60
2023-05-15T07:20:30.313Z,5.60
2023-05-15T07:23:02.766Z,5.60
2023-05-15T07:25:33.161Z,5.60
2023-05-15T07:28:03.360Z,5.70
2023-05-15T07:30:33.555Z,5.70
2023-05-15T07:33:05.575Z,5.50
2023-05-15T07:35:35.896Z,5.50
2023-05-15T07:38:06.222Z,5.50
2023-05-15T07:40:36.459Z,5.50
2023-05-15T07:43:06.730Z,5.40
2023-05-15T07:45:37.175Z,5.50
2023-05-15T07:48:19.395Z,5.50
2023-05-15T07:50:51.794Z,5.60
2023-05-15T07:53:22.553Z,5.60
2023-05-15T07:55:52.711Z,5.60
2023-05-15T07:58:24.896Z,5.70
2023-05-15T08:00:55.461Z,5.60
2023-05-15T08:03:27.857Z,5.60
2023-05-15T08:05:58.290Z,5.60
2023-05-15T08:08:28.654Z,5.60
2023-05-15T08:10:58.860Z,5.60
2023-05-15T08:13:29.473Z,5.50
2023-05-15T08:15:59.988Z,5.50
2023-05-15T08:18:32.381Z,5.40
2023-05-15T08:21:04.135Z,5.30
2023-05-15T08:23:35.156Z,5.10
2023-05-15T08:26:05.466Z,4.90
2023-05-15T08:28:36.288Z,4.70
2023-05-15T08:31:06.757Z,4.50
2023-05-15T08:33:38.650Z,4.70
2023-05-15T08:36:09.606Z,4.70
2023-05-15T08:38:39.969Z,4.80
2023-05-15T08:43:46.812Z,5.00
2023-05-15T08:46:17.321Z,4.90
2023-05-15T08:48:50.266Z,4.70
2023-05-15T08:51:21.238Z,4.50
2023-05-15T08:53:52.277Z,4.30
2023-05-15T08:56:22.635Z,4.30
2023-05-15T08:58:53.464Z,4.40
2023-05-15T09:01:24.346Z,4.40
2023-05-15T09:03:56.550Z,4.40
2023-05-15T09:06:28.063Z,4.30
2023-05-15T09:09:01.608Z,4.20
2023-05-15T09:11:33.503Z,4.10
2023-05-15T09:14:04.003Z,4.00
2023-05-15T09:16:34.896Z,4.00
2023-05-15T09:19:07.556Z,4.00
2023-05-15T09:21:37.950Z,3.90
2023-05-15T09:24:26.497Z,3.90
2023-05-15T09:27:07.050Z,3.90
2023-05-15T09:29:39.157Z,4.00
2023-05-15T09:32:11.599Z,4.00
2023-05-15T09:34:45.008Z,4.00
2023-05-15T09:37:31.674Z,3.90
2023-05-15T09:40:11.990Z,3.90
2023-05-15T09:42:42.121Z,4.00
2023-05-15T09:45:20.334Z,4.20
2023-05-15T09:47:50.635Z,4.20
2023-05-15T09:50:26.068Z,4.20
2023-05-15T09:52:56.818Z,4.10
2023-05-15T09:55:28.238Z,4.00
2023-05-15T09:58:08.519Z,3.90
2023-05-15T10:00:47.701Z,3.90
2023-05-15T10:03:21.506Z,4.00
2023-05-15T10:06:01.466Z,4.10
2023-05-15T10:08:31.669Z,4.20
2023-05-15T10:11:03.161Z,4.20
2023-05-15T10:13:34.754Z,4.30
2023-05-15T10:16:06.762Z,4.30
2023-05-15T10:18:38.395Z,4.40
2023-05-15T10:21:11.013Z,4.40
2023-05-15T10:23:45.080Z,4.40
2023-05-15T10:26:23.809Z,4.40
2023-05-15T10:28:55.395Z,4.40
2023-05-15T10:31:27.566Z,4.40
2023-05-15T10:33:59.363Z,4.40
2023-05-15T10:36:32.090Z,4.50
2023-05-15T10:39:03.817Z,4.50
2023-05-15T10:41:35.532Z,4.60
2023-05-15T10:44:06.349Z,4.70
2023-05-15T10:46:38.161Z,4.80
2023-05-15T10:49:08.713Z,4.90
2023-05-15T10:51:41.798Z,5.00
2023-05-15T10:54:12.079Z,5.10
2023-05-15T10:56:44.900Z,5.20
2023-05-15T10:59:15.180Z,5.40
2023-05-15T11:01:45.791Z,5.50
2023-05-15T11:04:17.340Z,5.70
2023-05-15T11:06:52.415Z,5.70
2023-05-15T11:09:46.277Z,5.90
2023-05-15T11:12:16.478Z,6.10
2023-05-15T11:15:07.214Z,6.20
2023-05-15T11:17:38.141Z,6.30
2023-05-15T11:20:09.314Z,6.40
2023-05-15T11:22:41.431Z,6.50
2023-05-15T11:25:13.141Z,6.60
2023-05-15T11:27:44.433Z,6.70
2023-05-15T11:30:21.399Z,6.90
2023-05-15T11:32:59.502Z,7.10
2023-05-15T11:35:32.431Z,7.40
2023-05-15T11:38:06.838Z,7.60
2023-05-15T11:40:47.977Z,7.70
2023-05-15T11:43:22.456Z,7.90
2023-05-15T11:45:56.578Z,8.10
2023-05-15T11:48:28.564Z,8.30
2023-05-15T11:50:58.943Z,8.50
2023-05-15T11:53:32.443Z,8.80
2023-05-15T11:56:02.828Z,9.00
2023-05-15T11:58:33.148Z,9.20
2023-05-15T12:01:04.247Z,9.40
2023-05-15T12:03:37.461Z,9.50
2023-05-15T12:06:08.443Z,9.70
2023-05-15T12:08:42.609Z,9.80
2023-05-15T12:11:13.676Z,10.00
2023-05-15T12:13:44.298Z,10.10
2023-05-15T12:16:14.505Z,10.30
2023-05-15T12:18:44.798Z,10.50
2023-05-15T12:21:15.019Z,10.70
2023-05-15T12:26:28.800Z,11.00
2023-05-15T12:34:40.035Z,11.40
2023-05-15T12:37:15.534Z,11.50
2023-05-15T12:39:58.815Z,11.60
2023-05-15T12:42:29.123Z,11.90
2023-05-15T12:44:59.755Z,12.00
2023-05-15T12:47:30.912Z,12.20
2023-05-15T12:50:01.619Z,12.40
2023-05-15T12:52:31.908Z,12.50
2023-05-15T12:55:05.240Z,12.70
2023-05-15T12:57:36.780Z,12.80
2023-05-15T13:00:08.688Z,13.00
2023-05-15T13:02:39.001Z,13.30
2023-05-15T13:05:09.717Z,13.60
2023-05-15T13:07:40.958Z,13.80
2023-05-15T13:10:16.830Z,14.20
2023-05-15T13:12:48.249Z,14.30
2023-05-15T13:15:31.648Z,14.50
2023-05-15T13:18:05.965Z,14.50
2023-05-15T13:20:37.904Z,14.70
2023-05-15T13:23:08.158Z,14.80
2023-05-15T13:25:40.822Z,15.00
2023-05-15T13:28:11.224Z,15.40
2023-05-15T13:30:43.487Z,15.60
2023-05-15T13:33:15.418Z,15.90
2023-05-15T13:35:45.894Z,16.10
2023-05-15T13:38:16.329Z,16.20
2023-05-15T13:40:48.287Z,16.30
2023-05-15T13:43:18.877Z,16.40
2023-05-15T13:45:49.332Z,16.40
2023-05-15T13:48:19.570Z,16.50
2023-05-15T13:50:49.774Z,16.50
2023-05-15T13:53:20.093Z,16.50
2023-05-15T13:55:52.836Z,16.60
2023-05-15T13:58:23.319Z,16.70
2023-05-15T14:00:53.739Z,16.80
2023-05-15T14:03:24.449Z,16.90
2023-05-15T14:05:54.727Z,17.10
2023-05-15T14:08:24.859Z,17.20
2023-05-15T14:10:56.688Z,17.20
2023-05-15T14:13:26.869Z,17.30
2023-05-15T14:15:57.153Z,17.40
2023-05-15T14:18:30.454Z,17.40
2023-05-15T14:21:02.222Z,17.40
2023-05-15T14:23:32.430Z,17.30
2023-05-15T14:26:04.698Z,17.50
2023-05-15T14:28:34.856Z,17.60
2023-05-15T14:31:05.096Z,17.70
2023-05-15T14:33:35.817Z,17.80
2023-05-15T14:36:06.254Z,17.90
2023-05-15T14:38:36.628Z,18.00
2023-05-15T14:41:08.915Z,18.30
2023-05-15T14:43:39.056Z,18.40
2023-05-15T14:46:11.274Z,18.50
2023-05-15T14:48:41.668Z,18.60
2023-05-15T14:51:12.379Z,18.70
2023-05-15T14:53:42.575Z,19.00
2023-05-15T14:56:14.415Z,19.10
2023-05-15T14:58:44.598Z,18.90
2023-05-15T15:01:14.888Z,18.80
2023-05-15T15:03:45.422Z,18.60
2023-05-15T15:06:15.828Z,18.70
2023-05-15T15:08:45.950Z,18.80
2023-05-15T15:11:17.980Z,18.90
2023-05-15T15:13:48.519Z,18.90
2023-05-15T15:16:18.801Z,18.90
2023-05-15T15:18:49.057Z,18.90
2023-05-15T15:21:19.573Z,19.20
2023-05-15T15:23:50.278Z,19.30
2023-05-15T15:26:22.642Z,19.40
2023-05-15T15:28:53.164Z,19.60
2023-05-15T15:31:23.578Z,19.70
2023-05-15T15:33:54.151Z,19.80
2023-05-15T15:36:24.478Z,20.00
2023-05-15T15:38:54.983Z,20.10
2023-05-15T15:41:27.011Z,20.20
2023-05-15T15:43:57.175Z,20.30
2023-05-15T15:46:28.129Z,20.50
2023-05-15T15:48:58.533Z,20.70
2023-05-15T15:51:28.739Z,20.90
2023-05-15T15:53:58.917Z,21.10
2023-05-15T15:56:30.803Z,21.40
2023-05-15T15:59:01.230Z,21.70
2023-05-15T16:01:31.608Z,22.20
2023-05-15T16:04:02.058Z,22.40
2023-05-15T16:06:32.307Z,22.20
2023-05-15T16:09:03.160Z,22.20
2023-05-15T16:11:35.233Z,21.90
2023-05-15T16:14:05.369Z,21.80
2023-05-15T16:16:36.133Z,21.40
2023-05-15T16:19:06.435Z,21.10
2023-05-15T16:21:37.150Z,20.90
2023-05-15T16:24:08.176Z,20.90
2023-05-15T16:26:40.947Z,20.80
2023-05-15T16:29:11.250Z,20.90
2023-05-15T16:31:42.698Z,21.00
2023-05-15T16:34:13.112Z,21.10
2023-05-15T16:36:43.493Z,21.00
2023-05-15T16:39:13.714Z,20.70
2023-05-15T16:41:45.578Z,20.40
2023-05-15T16:44:15.730Z,20.10
2023-05-15T16:46:46.010Z,19.90
2023-05-15T16:49:16.233Z,19.80
2023-05-15T16:51:46.425Z,19.80
2023-05-15T16:54:16.829Z,19.70
2023-05-15T16:56:48.737Z,19.80
2023-05-15T16:59:19.397Z,19.80
2023-05-15T17:01:50.567Z,20.00
2023-05-15T17:04:21.257Z,20.40
2023-05-15T17:06:51.950Z,21.00
2023-05-15T17:09:22.381Z,21.60
2023-05-15T17:11:54.361Z,22.20
2023-05-15T17:14:24.589Z,22.60
2023-05-15T17:16:54.811Z,23.10
2023-05-15T17:19:25.202Z,23.30
2023-05-15T17:21:55.589Z,23.30
2023-05-15T17:24:28.749Z,23.30
2023-05-15T17:27:04.684Z,23.70
2023-05-15T17:29:35.298Z,23.90
2023-05-15T17:32:06.772Z,23.60
2023-05-15T17:34:37.017Z,23.80
2023-05-15T17:37:07.697Z,24.30
2023-05-15T17:39:37.962Z,24.50
2023-05-15T17:42:10.085Z,24.60
2023-05-15T17:44:40.269Z,24.50
2023-05-15T17:47:10.778Z,24.30
2023-05-15T17:49:41.232Z,23.90
2023-05-15T17:52:11.829Z,23.50
2023-05-15T17:54:42.110Z,23.20
2023-05-15T17:57:14.069Z,23.40
2023-05-15T17:59:44.191Z,23.30
2023-05-15T18:02:14.669Z,23.20
2023-05-15T18:04:44.873Z,23.20
2023-05-15T18:07:15.093Z,23.20
2023-05-15T18:09:45.417Z,23.30
2023-05-15T18:12:17.227Z,23.70
2023-05-15T18:14:47.492Z,24.00
2023-05-15T18:17:18.369Z,24.60
2023-05-15T18:19:48.503Z,24.50
2023-05-15T18:22:18.699Z,24.70
2023-05-15T18:24:48.958Z,24.70
2023-05-15T18:27:20.998Z,24.40
2023-05-15T18:29:51.262Z,24.40
2023-05-15T18:32:22.157Z,24.60
2023-05-15T18:34:52.557Z,24.80
2023-05-15T18:37:22.886Z,25.00
2023-05-15T18:39:53.492Z,25.30
2023-05-15T18:42:26.032Z,25.30
2023-05-15T18:44:56.216Z,24.60
2023-05-15T18:47:26.552Z,24.30
2023-05-15T18:49:56.925Z,24.20
2023-05-15T18:52:27.976Z,23.90
2023-05-15T18:54:58.332Z,24.20
2023-05-15T18:57:31.214Z,24.40
2023-05-15T19:00:01.356Z,24.50
2023-05-15T19:02:33.246Z,24.40
2023-05-15T19:05:03.645Z,24.30
2023-05-15T19:07:33.892Z,24.20
2023-05-15T19:10:04.281Z,24.30
2023-05-15T19:12:36.303Z,24.00
2023-05-15T19:15:07.321Z,23.80
2023-05-15T19:17:38.212Z,23.70
2023-05-15T19:20:10.728Z,23.80
2023-05-15T19:22:40.964Z,23.60
2023-05-15T19:25:12.113Z,23.20
2023-05-15T19:27:44.185Z,22.70
2023-05-15T19:30:14.779Z,22.60
2023-05-15T19:32:45.210Z,22.50
2023-05-15T19:35:16.410Z,22.60
2023-05-15T19:37:46.608Z,22.60
2023-05-15T19:40:17.406Z,23.10
2023-05-15T19:42:49.600Z,23.50
2023-05-15T19:45:19.727Z,23.80
2023-05-15T19:47:49.985Z,24.00
2023-05-15T19:50:21.126Z,24.10
2023-05-15T19:52:52.266Z,24.10
2023-05-15T19:55:22.435Z,23.90
2023-05-15T19:57:58.570Z,23.80
2023-05-15T20:00:28.924Z,23.80
2023-05-15T20:02:59.251Z,23.60
2023-05-15T20:05:29.701Z,24.00
2023-05-15T20:08:00.390Z,24.40
2023-05-15T20:10:30.643Z,24.40
2023-05-15T20:13:02.484Z,24.50
2023-05-15T20:15:32.684Z,24.30
2023-05-15T20:18:03.209Z,24.30
2023-05-15T20:20:33.761Z,24.50
2023-05-15T20:23:04.006Z,24.70
2023-05-15T20:25:34.169Z,24.90
2023-05-15T20:28:06.037Z,25.00
2023-05-15T20:30:36.524Z,24.70
2023-05-15T20:33:07.053Z,24.70
2023-05-15T20:35:37.880Z,24.80
2023-05-15T20:38:08.116Z,24.80
2023-05-15T20:40:38.401Z,24.60
2023-05-15T20:43:10.210Z,24.80
2023-05-15T20:45:40.409Z,25.00
2023-05-15T20:48:11.801Z,25.10
2023-05-15T20:50:42.430Z,25.10
2023-05-15T20:53:12.719Z,25.00
2023-05-15T20:55:42.886Z,25.00
2023-05-15T20:58:14.777Z,25.10
2023-05-15T21:00:45.233Z,25.00
2023-05-15T21:03:15.678Z,24.90
2023-05-15T21:05:46.014Z,24.70
2023-05-15T21:08:17.130Z,24.70
2023-05-15T21:10:51.547Z,24.70
2023-05-15T21:13:23.732Z,25.00
2023-05-15T21:15:54.255Z,25.10
2023-05-15T21:18:24.507Z,24.90
2023-05-15T21:20:54.709Z,24.80
2023-05-15T21:23:25.351Z,25.00
2023-05-15T21:25:56.375Z,25.10
2023-05-15T21:28:28.625Z,24.80
2023-05-15T21:31:01.016Z,24.80
2023-05-15T21:33:31.454Z,24.70
2023-05-15T21:36:01.680Z,24.90
2023-05-15T21:38:32.537Z,24.90
2023-05-15T21:41:03.328Z,25.00
2023-05-15T21:43:35.582Z,25.10
2023-05-15T21:46:05.850Z,25.00
2023-05-15T21:48:36.117Z,25.10
2023-05-15T21:51:06.649Z,24.90
2023-05-15T21:53:37.224Z,24.70
2023-05-15T21:56:07.975Z,24.60
2023-05-15T21:58:40.293Z,24.80
2023-05-15T22:01:10.437Z,25.00
2023-05-15T22:03:40.783Z,25.00
2023-05-15T22:06:11.334Z,24.90
2023-05-15T22:08:41.624Z,24.70
2023-05-15T22:11:11.848Z,24.30
2023-05-15T22:13:43.879Z,24.00
2023-05-15T22:16:14.091Z,23.80
2023-05-15T22:18:46.086Z,23.80
2023-05-15T22:21:16.451Z,24.10
2023-05-15T22:23:46.786Z,24.00
2023-05-15T22:26:17.688Z,23.70
2023-05-15T22:28:56.068Z,23.10
2023-05-15T22:31:27.078Z,22.60
2023-05-15T22:33:57.565Z,22.20
2023-05-15T22:36:28.186Z,22.00
2023-05-15T22:38:58.526Z,21.70
2023-05-15T22:41:28.642Z,21.30
2023-05-15T22:44:00.481Z,21.00
2023-05-15T22:46:30.871Z,20.80
2023-05-15T22:49:12.906Z,20.70
2023-05-15T22:51:43.239Z,20.50
2023-05-15T22:54:13.618Z,20.40
2023-05-15T22:56:43.929Z,20.40
2023-05-15T22:59:19.406Z,20.30
2023-05-15T23:01:50.157Z,20.30
2023-05-15T23:04:21.337Z,20.20
2023-05-15T23:06:51.853Z,20.10
2023-05-15T23:09:22.279Z,19.90
2023-05-15T23:11:53.153Z,19.60
2023-05-15T23:14:25.254Z,19.30
2023-05-15T23:16:55.579Z,19.10
2023-05-15T23:19:26.096Z,18.80
2023-05-15T23:21:56.455Z,18.60
2023-05-15T23:24:26.731Z,18.50
2023-05-15T23:26:57.596Z,18.40
2023-05-15T23:29:30.298Z,18.40
2023-05-15T23:32:00.849Z,18.30
2023-05-15T23:34:31.608Z,18.20
2023-05-15T23:37:02.489Z,18.10
2023-05-15T23:39:32.780Z,18.10
2023-05-15T23:42:04.769Z,18.10
2023-05-15T23:44:37.525Z,18.00
2023-05-15T23:47:08.892Z,17.90
2023-05-15T23:49:40.055Z,17.70
2023-05-15T23:52:11.672Z,17.60
2023-05-15T23:54:42.234Z,17.60
2023-05-15T23:57:13.624Z,17.50
2023-05-15T23:59:45.910Z,17.50
